createdAt,value
2023-11-30T00:02:40.548Z,9.03
2023-11-30T00:05:41.990Z,11.90
2023-11-30T00:08:43.436Z,9.73
2023-11-30T00:11:44.875Z,11.13
2023-11-30T00:14:46.392Z,9.33
2023-11-30T00:17:47.984Z,12.13
2023-11-30T00:20:49.452Z,11.40
2023-11-30T00:23:50.951Z,10.53
2023-11-30T00:26:52.436Z,11.37
2023-11-30T00:29:53.920Z,9.87
2023-11-30T00:32:55.852Z,9.00
2023-11-30T00:35:57.326Z,11.87
2023-11-30T00:38:58.958Z,10.87
2023-11-30T00:42:00.687Z,7.97
2023-11-30T00:45:03.047Z,10.50
2023-11-30T00:48:05.092Z,9.70
2023-11-30T00:51:12.388Z,9.47
2023-11-30T00:54:13.880Z,9.03
2023-11-30T00:57:15.408Z,10.20
2023-11-30T01:00:17.402Z,10.93
2023-11-30T01:03:18.936Z,8.50
2023-11-30T01:06:21.108Z,8.17
2023-11-30T01:09:22.610Z,8.47
2023-11-30T01:12:27.529Z,9.80
2023-11-30T01:15:29.070Z,10.50
2023-11-30T01:18:31.852Z,9.47
2023-11-30T01:21:33.455Z,12.20
2023-11-30T01:24:34.962Z,10.27
2023-11-30T01:27:37.159Z,9.90
2023-11-30T01:30:38.620Z,10.23
2023-11-30T01:33:40.204Z,8.63
2023-11-30T01:36:41.799Z,9.40
2023-11-30T01:39:43.301Z,8.93
2023-11-30T01:42:44.756Z,10.43
2023-11-30T01:45:46.247Z,9.53
2023-11-30T01:48:48.178Z,11.03
2023-11-30T01:51:50.551Z,8.80
2023-11-30T01:54:52.804Z,9.77
2023-11-30T01:57:54.313Z,10.60
2023-11-30T02:00:58.960Z,11.63
2023-11-30T02:04:11.448Z,12.33
2023-11-30T02:07:12.945Z,11.17
2023-11-30T02:10:14.477Z,12.20
2023-11-30T02:13:15.957Z,11.40
2023-11-30T02:16:17.488Z,11.83
2023-11-30T02:19:19.031Z,11.37
2023-11-30T02:22:20.526Z,10.80
2023-11-30T02:25:22.287Z,15.10
2023-11-30T02:28:23.740Z,13.00
2023-11-30T02:31:25.275Z,12.43
2023-11-30T02:34:26.748Z,11.77
2023-11-30T02:37:28.174Z,12.73
2023-11-30T02:40:29.883Z,12.50
2023-11-30T02:43:31.485Z,11.50
2023-11-30T02:46:33.038Z,13.03
2023-11-30T02:49:34.552Z,10.57
2023-11-30T02:52:36.083Z,13.23
2023-11-30T02:55:37.541Z,13.30
2023-11-30T02:58:39.019Z,12.23
2023-11-30T03:01:47.681Z,13.17
2023-11-30T03:04:49.992Z,10.83
2023-11-30T03:07:51.439Z,12.93
2023-11-30T03:10:52.892Z,14.60
2023-11-30T03:13:54.514Z,10.80
2023-11-30T03:16:57.498Z,10.87
2023-11-30T03:19:59.459Z,10.93
2023-11-30T03:23:00.936Z,11.13
2023-11-30T03:26:02.368Z,11.93
2023-11-30T03:29:03.818Z,11.73
2023-11-30T03:32:05.577Z,11.13
2023-11-30T03:35:08.078Z,12.47
2023-11-30T03:38:10.047Z,10.70
2023-11-30T03:41:12.004Z,11.07
2023-11-30T03:44:13.426Z,11.73
2023-11-30T03:47:14.870Z,9.67
2023-11-30T03:50:16.334Z,11.27
2023-11-30T03:53:18.365Z,11.83
2023-11-30T03:56:19.834Z,9.63
2023-11-30T03:59:21.312Z,10.57
2023-11-30T04:02:22.775Z,10.00
2023-11-30T04:05:24.323Z,10.23
2023-11-30T04:08:25.990Z,9.67
2023-11-30T04:11:27.434Z,11.57
2023-11-30T04:14:28.865Z,12.67
2023-11-30T04:17:30.457Z,11.90
2023-11-30T04:20:32.038Z,11.87
2023-11-30T04:23:33.530Z,11.60
2023-11-30T04:26:36.881Z,10.77
2023-11-30T04:29:38.410Z,11.93
2023-11-30T04:32:40.140Z,10.97
2023-11-30T04:35:41.617Z,12.63
2023-11-30T04:38:43.040Z,11.30
2023-11-30T04:41:44.511Z,11.53
2023-11-30T04:44:46.014Z,9.77
2023-11-30T04:47:47.464Z,10.23
2023-11-30T04:50:48.916Z,10.73
2023-11-30T04:53:51.181Z,8.60
2023-11-30T04:56:52.637Z,10.70
2023-11-30T04:59:54.430Z,11.30
2023-11-30T05:02:56.879Z,11.33
2023-11-30T05:05:58.631Z,11.07
2023-11-30T05:09:00.130Z,11.20
2023-11-30T05:12:01.687Z,10.10
2023-11-30T05:15:04.641Z,12.33
2023-11-30T05:18:06.820Z,11.83
2023-11-30T05:21:09.015Z,11.50
2023-11-30T05:24:10.480Z,9.60
2023-11-30T05:27:11.977Z,13.27
2023-11-30T05:30:13.555Z,14.10
2023-11-30T05:33:16.232Z,13.57
2023-11-30T05:36:17.867Z,11.73
2023-11-30T05:39:19.376Z,11.13
2023-11-30T05:42:20.911Z,10.90
2023-11-30T05:45:22.433Z,10.97
2023-11-30T05:48:24.124Z,13.00
2023-11-30T05:51:27.543Z,12.67
2023-11-30T05:54:29.229Z,11.27
2023-11-30T05:57:30.713Z,8.10
2023-11-30T06:00:32.616Z,8.73
2023-11-30T06:03:34.208Z,7.93
2023-11-30T06:06:35.983Z,10.33
2023-11-30T06:09:37.595Z,9.43
2023-11-30T06:12:40.152Z,8.53
2023-11-30T06:15:41.761Z,9.23
2023-11-30T06:18:43.196Z,8.33
2023-11-30T06:21:44.727Z,8.90
2023-11-30T06:24:46.149Z,9.47
2023-11-30T06:27:47.765Z,9.80
2023-11-30T06:30:49.264Z,9.60
2023-11-30T06:33:51.403Z,10.70
2023-11-30T06:36:52.950Z,9.70
2023-11-30T06:39:54.384Z,9.93
2023-11-30T06:42:56.021Z,9.10
2023-11-30T06:45:57.429Z,11.27
2023-11-30T06:48:58.878Z,10.63
2023-11-30T06:52:04.098Z,8.80
2023-11-30T06:55:07.472Z,9.53
2023-11-30T06:58:09.018Z,9.37
2023-11-30T07:01:13.400Z,10.77
2023-11-30T07:04:14.964Z,9.17
2023-11-30T07:07:24.252Z,11.67
2023-11-30T07:10:33.140Z,10.63
2023-11-30T07:13:34.543Z,10.33
2023-11-30T07:16:36.232Z,8.00
2023-11-30T07:19:40.282Z,9.93
2023-11-30T07:22:41.771Z,7.07
2023-11-30T07:25:43.239Z,7.33
2023-11-30T07:28:45.021Z,8.47
2023-11-30T07:31:46.624Z,8.13
2023-11-30T07:34:48.107Z,9.17
2023-11-30T07:37:49.700Z,14.27
2023-11-30T07:40:51.169Z,12.37
2023-11-30T07:43:52.643Z,10.67
2023-11-30T07:46:54.189Z,7.63
2023-11-30T07:49:55.783Z,9.00
2023-11-30T07:52:57.208Z,9.03
2023-11-30T07:55:58.696Z,7.50
2023-11-30T07:59:00.442Z,8.23
2023-11-30T08:02:01.968Z,7.87
2023-11-30T08:05:06.038Z,9.23
2023-11-30T08:08:07.791Z,9.03
2023-11-30T08:11:09.287Z,9.30
2023-11-30T08:14:10.856Z,8.63
2023-11-30T08:17:12.316Z,9.77
2023-11-30T08:20:15.230Z,9.93
2023-11-30T08:23:17.985Z,8.90
2023-11-30T08:26:19.581Z,8.37
2023-11-30T08:29:21.112Z,8.80
2023-11-30T08:32:22.546Z,8.50
2023-11-30T08:35:24.128Z,8.30
2023-11-30T08:38:25.579Z,7.07
2023-11-30T08:41:27.088Z,9.47
2023-11-30T08:44:28.508Z,8.77
2023-11-30T08:47:30.153Z,10.87
2023-11-30T08:50:31.653Z,9.97
2023-11-30T08:53:33.130Z,9.23
2023-11-30T08:56:34.590Z,9.63
2023-11-30T08:59:36.106Z,11.23
2023-11-30T09:02:37.727Z,12.60
2023-11-30T09:05:39.204Z,9.67
2023-11-30T09:08:40.717Z,11.10
2023-11-30T09:11:45.647Z,5.83
2023-11-30T09:14:47.119Z,7.13
2023-11-30T09:17:48.688Z,11.30
2023-11-30T09:20:50.243Z,7.00
2023-11-30T09:23:51.785Z,7.47
2023-11-30T09:26:56.611Z,7.03
2023-11-30T09:29:58.056Z,7.00
2023-11-30T09:32:59.561Z,5.83
2023-11-30T09:36:02.106Z,5.83
2023-11-30T09:39:03.809Z,7.30
2023-11-30T09:42:07.175Z,7.53
2023-11-30T09:45:09.835Z,7.20
2023-11-30T09:48:12.233Z,9.07
2023-11-30T09:51:20.590Z,7.13
2023-11-30T09:54:24.020Z,9.57
2023-11-30T09:57:26.770Z,7.93
2023-11-30T10:00:28.414Z,8.03
2023-11-30T10:03:33.801Z,7.23
2023-11-30T10:06:35.533Z,7.73
2023-11-30T10:09:38.601Z,7.40
2023-11-30T10:12:41.077Z,7.50
2023-11-30T10:15:42.635Z,9.20
2023-11-30T10:18:44.211Z,11.40
2023-11-30T10:21:45.836Z,14.23
2023-11-30T10:24:47.307Z,12.73
2023-11-30T10:27:52.953Z,8.57
2023-11-30T10:30:57.355Z,10.27
2023-11-30T10:34:28.713Z,8.63
2023-11-30T10:37:33.820Z,7.97
2023-11-30T10:40:35.706Z,7.33
2023-11-30T10:43:41.505Z,7.30
2023-11-30T10:46:44.205Z,6.23
2023-11-30T10:49:47.784Z,6.27
2023-11-30T10:52:51.695Z,8.63
2023-11-30T10:55:54.212Z,9.17
2023-11-30T10:58:58.435Z,6.70
2023-11-30T11:02:00.839Z,9.40
2023-11-30T11:05:02.452Z,6.87
2023-11-30T11:08:04.122Z,7.20
2023-11-30T11:11:09.767Z,6.27
2023-11-30T11:14:31.659Z,6.73
2023-11-30T11:17:33.247Z,10.53
2023-11-30T11:20:37.142Z,6.13
2023-11-30T11:23:40.569Z,12.63
2023-11-30T11:26:42.787Z,6.73
2023-11-30T11:29:45.218Z,7.90
2023-11-30T11:32:49.494Z,7.60
2023-11-30T11:35:50.978Z,6.40
2023-11-30T11:38:52.804Z,7.23
2023-11-30T11:41:54.545Z,7.63
2023-11-30T11:44:57.006Z,7.30
2023-11-30T11:47:58.632Z,6.23
2023-11-30T11:51:00.288Z,7.80
2023-11-30T11:54:02.149Z,7.47
2023-11-30T11:57:05.621Z,8.80
2023-11-30T12:00:14.967Z,7.73
2023-11-30T12:03:16.639Z,8.07
2023-11-30T12:06:29.153Z,6.30
2023-11-30T12:09:30.635Z,7.07
2023-11-30T12:12:35.770Z,8.87
2023-11-30T12:15:38.232Z,9.40
2023-11-30T12:18:39.746Z,12.43
2023-11-30T12:21:41.217Z,8.43
2023-11-30T12:24:42.743Z,8.63
2023-11-30T12:27:44.442Z,6.97
2023-11-30T12:30:47.455Z,6.57
2023-11-30T12:33:50.320Z,6.63
2023-11-30T12:36:53.161Z,14.00
2023-11-30T12:39:55.161Z,6.57
2023-11-30T12:42:57.771Z,8.37
2023-11-30T12:45:59.383Z,7.30
2023-11-30T12:49:01.030Z,7.27
2023-11-30T12:52:03.049Z,7.23
2023-11-30T12:55:05.636Z,6.77
2023-11-30T12:58:07.496Z,8.33
2023-11-30T13:01:09.035Z,7.47
2023-11-30T13:04:10.494Z,8.77
2023-11-30T13:07:12.152Z,9.60
2023-11-30T13:10:13.772Z,6.73
2023-11-30T13:13:15.637Z,7.60
2023-11-30T13:16:17.064Z,5.90
2023-11-30T13:19:18.565Z,8.87
2023-11-30T13:22:26.264Z,6.50
2023-11-30T13:25:27.921Z,6.97
2023-11-30T13:28:37.342Z,7.53
2023-11-30T13:31:42.007Z,8.10
2023-11-30T13:34:43.652Z,10.53
2023-11-30T13:37:45.225Z,7.73
2023-11-30T13:40:46.804Z,8.07
2023-11-30T13:43:48.776Z,6.43
2023-11-30T13:46:50.686Z,7.17
2023-11-30T13:49:52.537Z,8.77
2023-11-30T13:52:54.353Z,9.67
2023-11-30T13:55:57.536Z,8.00
2023-11-30T13:58:59.272Z,8.70
2023-11-30T14:02:01.419Z,8.67
2023-11-30T14:05:03.022Z,8.50
2023-11-30T14:08:05.435Z,6.40
2023-11-30T14:11:10.256Z,8.23
2023-11-30T14:14:12.204Z,6.73
2023-11-30T14:17:14.529Z,7.90
2023-11-30T14:20:16.544Z,7.67
2023-11-30T14:23:17.983Z,6.43
2023-11-30T14:26:19.494Z,8.30
2023-11-30T14:29:20.946Z,8.47
2023-11-30T14:32:22.839Z,6.67
2023-11-30T14:35:24.338Z,7.07
2023-11-30T14:38:25.757Z,8.23
2023-11-30T14:41:27.301Z,9.40
2023-11-30T14:44:29.815Z,10.43
2023-11-30T14:47:34.663Z,8.97
2023-11-30T14:50:36.270Z,7.90
2023-11-30T14:53:37.876Z,9.67
2023-11-30T14:56:40.804Z,10.90
2023-11-30T14:59:42.295Z,9.87
2023-11-30T15:02:43.956Z,7.23
2023-11-30T15:05:45.560Z,9.47
2023-11-30T15:08:47.091Z,7.77
2023-11-30T15:11:48.525Z,8.40
2023-11-30T15:14:50.047Z,7.73
2023-11-30T15:17:53.351Z,9.83
2023-11-30T15:20:55.160Z,9.00
2023-11-30T15:23:56.632Z,6.63
2023-11-30T15:26:59.346Z,6.70
2023-11-30T15:30:02.556Z,9.27
2023-11-30T15:33:04.098Z,10.37
2023-11-30T15:36:07.340Z,9.23
2023-11-30T15:39:17.081Z,14.53
2023-11-30T15:42:18.735Z,11.43
2023-11-30T15:45:24.172Z,10.87
2023-11-30T15:48:26.042Z,12.50
2023-11-30T15:51:27.596Z,10.17
2023-11-30T15:54:29.148Z,13.77
2023-11-30T15:57:30.658Z,12.93
2023-11-30T16:00:33.079Z,11.77
2023-11-30T16:03:34.599Z,10.13
2023-11-30T16:06:36.225Z,11.90
2023-11-30T16:09:37.971Z,13.47
2023-11-30T16:12:39.563Z,14.20
2023-11-30T16:15:41.026Z,11.40
2023-11-30T16:18:42.876Z,10.80
2023-11-30T16:21:44.370Z,11.20
2023-11-30T16:24:47.425Z,10.37
2023-11-30T16:27:49.088Z,11.30
2023-11-30T16:30:50.641Z,7.40
2023-11-30T16:33:52.705Z,12.50
2023-11-30T16:36:54.209Z,7.43
2023-11-30T16:39:56.048Z,13.53
2023-11-30T16:42:57.600Z,10.70
2023-11-30T16:45:59.208Z,10.87
2023-11-30T16:49:00.874Z,9.93
2023-11-30T16:52:02.470Z,10.37
2023-11-30T16:55:04.433Z,12.10
2023-11-30T16:58:06.339Z,13.53
2023-11-30T17:01:09.076Z,9.53
2023-11-30T17:04:11.000Z,17.43
2023-11-30T17:07:12.724Z,8.63
2023-11-30T17:10:14.786Z,8.37
2023-11-30T17:13:16.658Z,9.60
2023-11-30T17:16:18.309Z,10.33
2023-11-30T17:19:19.786Z,14.53
2023-11-30T17:22:22.131Z,14.60
2023-11-30T17:25:23.695Z,17.03
2023-11-30T17:28:25.262Z,15.00
2023-11-30T17:31:26.863Z,15.37
2023-11-30T17:34:28.595Z,14.93
2023-11-30T17:37:30.201Z,13.57
2023-11-30T17:40:31.825Z,12.23
2023-11-30T17:43:33.310Z,19.43
2023-11-30T17:46:34.900Z,18.47
2023-11-30T17:49:37.196Z,18.47
2023-11-30T17:52:38.669Z,14.27
2023-11-30T17:55:40.078Z,12.63
2023-11-30T17:58:41.539Z,12.37
2023-11-30T18:01:43.025Z,11.63
2023-11-30T18:04:44.585Z,10.83
2023-11-30T18:07:47.089Z,13.20
2023-11-30T18:10:49.324Z,15.73
2023-11-30T18:13:50.798Z,14.10
2023-11-30T18:16:52.288Z,12.23
2023-11-30T18:19:53.895Z,11.87
2023-11-30T18:22:55.980Z,11.53
2023-11-30T18:25:57.495Z,10.40
2023-11-30T18:28:58.936Z,12.13
2023-11-30T18:32:01.009Z,12.80
2023-11-30T18:35:05.337Z,14.40
2023-11-30T18:38:08.046Z,9.67
2023-11-30T18:41:09.529Z,12.07
2023-11-30T18:44:12.915Z,17.63
2023-11-30T18:47:17.511Z,10.63
2023-11-30T18:50:19.181Z,10.73
2023-11-30T18:53:27.002Z,10.00
2023-11-30T18:56:29.479Z,9.77
2023-11-30T18:59:32.308Z,11.03
2023-11-30T19:02:34.037Z,9.97
2023-11-30T19:05:37.039Z,9.57
2023-11-30T19:08:38.495Z,10.90
2023-11-30T19:11:40.099Z,11.33
2023-11-30T19:14:41.596Z,8.63
2023-11-30T19:17:46.292Z,9.67
2023-11-30T19:20:47.783Z,11.40
2023-11-30T19:23:50.484Z,8.47
2023-11-30T19:26:52.076Z,7.07
2023-11-30T19:29:53.490Z,9.87
2023-11-30T19:32:55.006Z,9.60
2023-11-30T19:35:56.757Z,8.33
2023-11-30T19:38:58.281Z,11.00
2023-11-30T19:41:59.817Z,9.00
2023-11-30T19:45:01.262Z,11.93
2023-11-30T19:48:02.885Z,12.57
2023-11-30T19:51:05.813Z,14.53
2023-11-30T19:54:08.052Z,11.23
2023-11-30T19:57:09.516Z,12.87
2023-11-30T20:00:11.442Z,14.47
2023-11-30T20:03:15.636Z,14.83
2023-11-30T20:06:17.626Z,15.50
2023-11-30T20:09:20.002Z,14.27
2023-11-30T20:12:21.578Z,17.30
2023-11-30T20:15:23.091Z,14.50
2023-11-30T20:18:24.573Z,10.73
2023-11-30T20:21:26.410Z,11.70
2023-11-30T20:24:28.034Z,10.57
2023-11-30T20:27:29.555Z,12.37
2023-11-30T20:30:32.005Z,12.97
2023-11-30T20:33:33.508Z,13.87
2023-11-30T20:36:34.997Z,13.17
2023-11-30T20:39:37.012Z,20.50
2023-11-30T20:42:38.570Z,81.83
2023-11-30T20:45:40.200Z,45.73
2023-11-30T20:48:41.816Z,36.50
2023-11-30T20:51:43.348Z,14.67
2023-11-30T20:54:44.938Z,15.97
2023-11-30T20:57:46.671Z,13.37
2023-11-30T21:00:48.978Z,14.53
2023-11-30T21:03:50.734Z,12.30
2023-11-30T21:06:52.300Z,13.57
2023-11-30T21:09:54.057Z,13.30
2023-11-30T21:12:56.054Z,16.57
2023-11-30T21:15:57.791Z,17.23
2023-11-30T21:18:59.377Z,21.07
2023-11-30T21:22:00.941Z,39.07
2023-11-30T21:25:02.689Z,24.17
2023-11-30T21:28:04.442Z,18.23
2023-11-30T21:31:06.315Z,16.17
2023-11-30T21:34:07.863Z,15.93
2023-11-30T21:37:09.434Z,19.03
2023-11-30T21:40:11.419Z,19.13
2023-11-30T21:43:12.928Z,18.33
2023-11-30T21:46:14.391Z,15.73
2023-11-30T21:49:19.662Z,14.50
2023-11-30T21:52:21.263Z,22.50
2023-11-30T21:55:22.723Z,18.97
2023-11-30T21:58:24.350Z,18.37
2023-11-30T22:01:25.899Z,17.43
2023-11-30T22:04:27.653Z,19.67
2023-11-30T22:07:29.229Z,17.23
2023-11-30T22:10:30.691Z,22.83
2023-11-30T22:13:32.264Z,18.87
2023-11-30T22:16:38.589Z,18.57
2023-11-30T22:19:40.584Z,16.10
2023-11-30T22:22:42.187Z,17.60
2023-11-30T22:25:45.344Z,20.10
2023-11-30T22:28:49.244Z,19.20
2023-11-30T22:31:50.735Z,19.00
2023-11-30T22:34:52.926Z,15.97
2023-11-30T22:37:54.436Z,17.40
2023-11-30T22:40:55.851Z,19.10
2023-11-30T22:43:57.370Z,18.70
2023-11-30T22:46:58.903Z,17.43
2023-11-30T22:50:00.380Z,17.07
2023-11-30T22:53:02.076Z,18.37
2023-11-30T22:56:03.939Z,17.13
2023-11-30T22:59:06.909Z,19.07
2023-11-30T23:02:08.482Z,17.93
2023-11-30T23:05:11.247Z,16.67
2023-11-30T23:08:14.167Z,18.77
2023-11-30T23:11:15.630Z,15.87
2023-11-30T23:14:17.308Z,17.23
2023-11-30T23:17:20.012Z,14.17
2023-11-30T23:20:21.566Z,16.70
2023-11-30T23:23:23.128Z,16.40
2023-11-30T23:26:24.568Z,16.10
2023-11-30T23:29:26.032Z,16.33
2023-11-30T23:32:27.573Z,15.40
2023-11-30T23:35:29.276Z,15.13
2023-11-30T23:38:30.802Z,15.40
2023-11-30T23:41:32.638Z,16.97
2023-11-30T23:44:34.143Z,14.67
2023-11-30T23:47:35.611Z,17.53
2023-11-30T23:50:37.082Z,17.17
2023-11-30T23:53:38.666Z,18.63
2023-11-30T23:56:40.138Z,18.30
2023-11-30T23:59:42.201Z,18.53
